createdAt,value
2022-12-14T00:01:35.597Z,51.93
2022-12-14T00:04:02.309Z,55.67
2022-12-14T00:06:31.439Z,47.77
2022-12-14T00:09:00.950Z,63.38
2022-12-14T00:11:28.635Z,65.67
2022-12-14T00:14:00.252Z,54.23
2022-12-14T00:16:30.311Z,53.87
2022-12-14T00:18:58.742Z,65.80
2022-12-14T00:21:26.283Z,60.67
2022-12-14T00:23:53.672Z,59.40
2022-12-14T00:26:25.925Z,57.43
2022-12-14T00:28:54.448Z,61.00
2022-12-14T00:31:22.626Z,59.47
2022-12-14T00:33:50.497Z,60.87
2022-12-14T00:36:17.384Z,55.63
2022-12-14T00:38:44.144Z,58.40
2022-12-14T00:41:12.518Z,52.83
2022-12-14T00:43:39.361Z,57.13
2022-12-14T00:46:06.594Z,62.67
2022-12-14T00:48:33.879Z,48.77
2022-12-14T00:51:01.104Z,58.80
2022-12-14T00:53:27.843Z,59.13
2022-12-14T00:55:54.711Z,60.93
2022-12-14T00:58:23.930Z,55.03
2022-12-14T01:01:02.913Z,54.63
2022-12-14T01:03:30.076Z,57.90
2022-12-14T01:05:57.252Z,59.07
2022-12-14T01:08:24.684Z,61.23
2022-12-14T01:10:51.976Z,50.43
2022-12-14T01:13:20.547Z,55.07
2022-12-14T01:15:47.358Z,55.27
2022-12-14T01:18:14.489Z,55.40
2022-12-14T01:20:41.152Z,49.83
2022-12-14T01:23:07.810Z,59.90
2022-12-14T01:25:34.523Z,56.13
2022-12-14T01:28:01.539Z,60.50
2022-12-14T01:30:28.181Z,55.13
2022-12-14T01:32:54.867Z,49.17
2022-12-14T01:35:21.577Z,50.90
2022-12-14T01:37:49.072Z,53.40
2022-12-14T01:40:16.503Z,47.20
2022-12-14T01:42:43.605Z,50.70
2022-12-14T01:45:24.685Z,55.00
2022-12-14T01:47:57.579Z,45.57
2022-12-14T01:50:37.526Z,47.73
2022-12-14T01:53:12.277Z,47.80
2022-12-14T01:55:45.177Z,40.00
2022-12-14T01:58:24.612Z,47.80
2022-12-14T02:00:57.214Z,55.37
2022-12-14T02:03:46.052Z,52.03
2022-12-14T02:06:36.403Z,43.80
2022-12-14T02:09:06.182Z,47.17
2022-12-14T02:11:44.342Z,49.77
2022-12-14T02:14:11.026Z,46.53
2022-12-14T02:16:38.563Z,39.50
2022-12-14T02:19:09.337Z,57.97
2022-12-14T02:22:32.959Z,51.57
2022-12-14T02:25:21.295Z,43.77
2022-12-14T02:28:17.329Z,36.53
2022-12-14T02:30:55.169Z,43.73
2022-12-14T02:33:55.770Z,54.97
2022-12-14T02:36:35.174Z,43.87
2022-12-14T02:39:07.759Z,44.60
2022-12-14T02:41:47.218Z,46.00
2022-12-14T02:44:20.900Z,49.53
2022-12-14T02:46:59.718Z,41.40
2022-12-14T02:49:49.614Z,43.10
2022-12-14T02:52:29.820Z,36.53
2022-12-14T02:55:05.625Z,44.60
2022-12-14T02:57:50.554Z,39.70
2022-12-14T03:00:18.685Z,43.07
2022-12-14T03:02:48.098Z,43.67
2022-12-14T03:05:15.099Z,36.30
2022-12-14T03:07:44.333Z,37.23
2022-12-14T03:10:27.491Z,47.37
2022-12-14T03:12:59.746Z,44.97
2022-12-14T03:15:28.496Z,39.27
2022-12-14T03:18:00.263Z,39.23
2022-12-14T03:20:32.544Z,42.00
2022-12-14T03:23:03.609Z,35.33
2022-12-14T03:25:34.564Z,34.40
2022-12-14T03:28:37.877Z,40.70
2022-12-14T03:31:34.679Z,40.13
2022-12-14T03:34:04.932Z,35.70
2022-12-14T03:36:50.318Z,36.63
2022-12-14T03:39:25.829Z,36.60
2022-12-14T03:42:15.072Z,37.50
2022-12-14T03:44:52.420Z,34.67
2022-12-14T03:47:26.029Z,44.23
2022-12-14T03:50:31.674Z,37.83
2022-12-14T03:53:28.287Z,27.53
2022-12-14T03:56:16.536Z,20.73
2022-12-14T03:59:06.862Z,32.30
2022-12-14T04:01:59.407Z,37.60
2022-12-14T04:04:43.769Z,37.93
2022-12-14T04:07:32.112Z,28.13
2022-12-14T04:10:26.388Z,32.37
2022-12-14T04:13:18.195Z,29.87
2022-12-14T04:16:05.716Z,30.03
2022-12-14T04:18:59.865Z,30.47
2022-12-14T04:21:46.308Z,34.20
2022-12-14T04:24:43.855Z,38.37
2022-12-14T04:27:29.463Z,37.57
2022-12-14T04:30:00.781Z,32.10
2022-12-14T04:32:46.474Z,43.30
2022-12-14T04:35:29.019Z,28.60
2022-12-14T04:38:04.506Z,35.17
2022-12-14T04:40:40.887Z,34.40
2022-12-14T04:43:18.062Z,38.73
2022-12-14T04:45:55.589Z,28.07
2022-12-14T04:48:43.669Z,33.30
2022-12-14T04:51:36.493Z,30.37
2022-12-14T04:54:13.489Z,30.63
2022-12-14T04:56:49.661Z,35.13
2022-12-14T04:59:16.474Z,28.00
2022-12-14T05:02:02.022Z,38.53
2022-12-14T05:04:57.214Z,43.80
2022-12-14T05:07:49.643Z,32.00
2022-12-14T05:10:22.689Z,38.23
2022-12-14T05:13:03.890Z,26.47
2022-12-14T05:15:35.391Z,31.80
2022-12-14T05:18:06.856Z,30.27
2022-12-14T05:20:33.780Z,36.23
2022-12-14T05:23:00.537Z,31.43
2022-12-14T05:25:27.289Z,35.90
2022-12-14T05:27:54.054Z,31.23
2022-12-14T05:30:20.990Z,34.90
2022-12-14T05:32:47.877Z,29.67
2022-12-14T05:35:14.893Z,31.60
2022-12-14T05:37:42.525Z,23.03
2022-12-14T05:40:10.554Z,26.83
2022-12-14T05:42:42.798Z,26.40
2022-12-14T05:45:14.054Z,25.80
2022-12-14T05:47:41.162Z,24.13
2022-12-14T05:50:09.827Z,27.83
2022-12-14T05:52:36.545Z,32.80
2022-12-14T05:55:04.706Z,28.47
2022-12-14T05:57:32.177Z,25.47
2022-12-14T05:59:58.952Z,23.60
2022-12-14T06:02:25.888Z,20.93
2022-12-14T06:04:52.655Z,27.23
2022-12-14T06:07:23.074Z,30.40
2022-12-14T06:09:54.177Z,28.90
2022-12-14T06:12:20.913Z,28.37
2022-12-14T06:14:47.553Z,26.53
2022-12-14T06:17:14.311Z,26.03
2022-12-14T06:19:40.918Z,22.50
2022-12-14T06:22:07.591Z,22.87
2022-12-14T06:24:34.301Z,22.13
2022-12-14T06:27:01.266Z,23.67
2022-12-14T06:29:28.015Z,30.63
2022-12-14T06:31:54.649Z,18.97
2022-12-14T06:34:28.004Z,21.40
2022-12-14T06:36:55.365Z,23.27
2022-12-14T06:39:22.113Z,26.30
2022-12-14T06:41:51.058Z,23.53
2022-12-14T06:44:17.792Z,23.00
2022-12-14T06:46:45.178Z,25.23
2022-12-14T06:49:32.738Z,27.13
2022-12-14T06:51:59.454Z,22.90
2022-12-14T06:54:26.185Z,19.03
2022-12-14T06:56:52.849Z,21.93
2022-12-14T06:59:19.586Z,19.77
2022-12-14T07:01:49.979Z,26.83
2022-12-14T07:04:18.715Z,23.57
2022-12-14T07:06:45.429Z,23.87
2022-12-14T07:09:14.140Z,22.10
2022-12-14T07:11:41.266Z,26.10
2022-12-14T07:14:08.098Z,42.97
2022-12-14T07:16:37.081Z,33.47
2022-12-14T07:19:04.922Z,24.27
2022-12-14T07:21:32.331Z,26.83
2022-12-14T07:24:00.678Z,31.67
2022-12-14T07:26:28.188Z,27.73
2022-12-14T07:28:55.140Z,32.47
2022-12-14T07:31:26.932Z,22.80
2022-12-14T07:33:56.248Z,27.73
2022-12-14T07:36:24.326Z,26.97
2022-12-14T07:38:52.074Z,25.77
2022-12-14T07:41:23.078Z,20.70
2022-12-14T07:43:51.221Z,23.73
2022-12-14T07:46:21.394Z,17.77
2022-12-14T07:48:50.738Z,23.93
2022-12-14T07:51:20.969Z,20.63
2022-12-14T07:53:48.002Z,26.60
2022-12-14T07:56:35.205Z,20.20
2022-12-14T07:59:03.831Z,21.87
2022-12-14T08:01:33.736Z,21.40
2022-12-14T08:04:11.955Z,19.57
2022-12-14T08:06:39.933Z,26.27
2022-12-14T08:09:08.453Z,19.57
2022-12-14T08:11:35.864Z,26.73
2022-12-14T08:14:08.880Z,20.40
2022-12-14T08:16:35.636Z,23.73
2022-12-14T08:19:02.939Z,28.37
2022-12-14T08:21:30.341Z,23.10
2022-12-14T08:23:57.787Z,22.40
2022-12-14T08:26:31.596Z,22.70
2022-12-14T08:29:02.026Z,18.73
2022-12-14T08:31:29.178Z,20.07
2022-12-14T08:33:57.705Z,20.00
2022-12-14T08:36:28.024Z,19.47
2022-12-14T08:38:56.653Z,16.90
2022-12-14T08:41:24.486Z,33.53
2022-12-14T08:43:52.724Z,20.90
2022-12-14T08:46:20.160Z,18.47
2022-12-14T08:48:47.739Z,28.60
2022-12-14T08:51:14.385Z,24.90
2022-12-14T08:53:41.124Z,22.53
2022-12-14T08:56:13.131Z,20.87
2022-12-14T08:58:40.853Z,25.37
2022-12-14T09:01:12.293Z,22.93
2022-12-14T09:03:40.941Z,24.40
2022-12-14T09:06:10.518Z,20.30
2022-12-14T09:08:37.595Z,21.63
2022-12-14T09:11:05.712Z,22.37
2022-12-14T09:13:33.841Z,25.77
2022-12-14T09:16:06.710Z,23.00
2022-12-14T09:18:34.552Z,26.97
2022-12-14T09:21:02.151Z,23.67
2022-12-14T09:23:31.138Z,83.80
2022-12-14T09:26:04.548Z,30.77
2022-12-14T09:28:32.987Z,23.90
2022-12-14T09:31:02.276Z,20.57
2022-12-14T09:33:30.378Z,23.33
2022-12-14T09:36:05.924Z,19.97
2022-12-14T09:38:34.422Z,20.97
2022-12-14T09:41:07.269Z,18.63
2022-12-14T09:43:42.121Z,15.83
2022-12-14T09:46:21.040Z,18.63
2022-12-14T09:48:49.165Z,18.30
2022-12-14T09:51:19.779Z,19.57
2022-12-14T09:53:50.396Z,23.10
2022-12-14T09:56:19.788Z,19.60
2022-12-14T09:58:59.642Z,18.53
2022-12-14T10:05:06.241Z,17.90
2022-12-14T10:07:54.812Z,19.93
2022-12-14T10:10:26.662Z,19.70
2022-12-14T10:12:59.264Z,16.97
2022-12-14T10:15:48.647Z,18.23
2022-12-14T10:18:58.949Z,18.10
2022-12-14T10:21:16.135Z,18.27
2022-12-14T10:23:51.373Z,15.07
2022-12-14T10:26:20.580Z,19.73
2022-12-14T10:29:01.674Z,19.53
2022-12-14T10:32:07.638Z,19.17
2022-12-14T10:34:35.122Z,16.93
2022-12-14T10:37:12.166Z,17.23
2022-12-14T10:40:11.832Z,16.67
2022-12-14T10:42:59.927Z,18.07
2022-12-14T10:45:41.092Z,17.17
2022-12-14T10:48:11.671Z,17.17
2022-12-14T10:51:01.671Z,16.20
2022-12-14T10:53:40.782Z,13.93
2022-12-14T10:56:14.470Z,18.20
2022-12-14T10:58:41.303Z,13.37
2022-12-14T11:01:14.666Z,14.77
2022-12-14T11:03:43.899Z,18.00
2022-12-14T11:06:19.586Z,11.97
2022-12-14T11:08:48.985Z,13.77
2022-12-14T11:11:20.854Z,18.57
2022-12-14T11:13:52.595Z,16.57
2022-12-14T11:16:31.774Z,13.40
2022-12-14T11:19:04.196Z,18.47
2022-12-14T11:21:38.387Z,14.97
2022-12-14T11:24:05.921Z,13.63
2022-12-14T11:26:40.036Z,12.93
2022-12-14T11:29:18.749Z,16.07
2022-12-14T11:31:48.057Z,17.57
2022-12-14T11:34:39.469Z,18.67
2022-12-14T11:37:23.230Z,13.83
2022-12-14T11:39:56.321Z,17.83
2022-12-14T11:42:24.115Z,19.10
2022-12-14T11:44:51.836Z,20.33
2022-12-14T11:47:24.432Z,18.03
2022-12-14T11:49:56.106Z,21.63
2022-12-14T11:52:27.145Z,19.13
2022-12-14T11:54:56.820Z,19.43
2022-12-14T11:57:32.404Z,23.70
2022-12-14T12:00:04.363Z,36.43
2022-12-14T12:02:40.843Z,19.07
2022-12-14T12:05:11.233Z,16.90
2022-12-14T12:07:42.627Z,25.67
2022-12-14T12:10:12.266Z,31.80
2022-12-14T12:12:52.239Z,27.40
2022-12-14T12:15:35.298Z,13.90
2022-12-14T12:18:11.256Z,12.60
2022-12-14T12:20:44.882Z,13.73
2022-12-14T12:23:19.459Z,13.43
2022-12-14T12:25:50.531Z,18.33
2022-12-14T12:28:25.913Z,20.67
2022-12-14T12:30:59.270Z,17.63
2022-12-14T12:33:43.557Z,17.17
2022-12-14T12:36:11.262Z,12.17
2022-12-14T12:38:51.883Z,14.63
2022-12-14T12:41:24.489Z,13.03
2022-12-14T12:44:21.786Z,10.60
2022-12-14T12:47:23.717Z,12.63
2022-12-14T12:49:47.332Z,16.23
2022-12-14T12:52:25.247Z,12.27
2022-12-14T12:55:05.954Z,10.93
2022-12-14T12:57:40.530Z,11.77
2022-12-14T13:00:07.940Z,10.07
2022-12-14T13:02:50.431Z,12.07
2022-12-14T13:05:45.895Z,15.10
2022-12-14T13:08:34.222Z,15.80
2022-12-14T13:11:25.504Z,13.63
2022-12-14T13:13:56.808Z,11.17
2022-12-14T13:16:34.818Z,13.00
2022-12-14T13:19:50.451Z,35.17
2022-12-14T13:22:24.864Z,28.80
2022-12-14T13:24:58.944Z,15.67
2022-12-14T13:27:46.313Z,13.43
2022-12-14T13:30:34.801Z,18.93
2022-12-14T13:33:01.464Z,17.37
2022-12-14T13:36:05.413Z,26.70
2022-12-14T13:39:00.054Z,19.10
2022-12-14T13:41:35.702Z,26.73
2022-12-14T13:44:08.286Z,27.97
2022-12-14T13:46:35.395Z,26.57
2022-12-14T13:49:05.390Z,24.97
2022-12-14T13:51:39.548Z,22.97
2022-12-14T13:54:40.101Z,15.27
2022-12-14T13:57:20.572Z,18.87
2022-12-14T13:59:55.933Z,15.93
2022-12-14T14:02:50.953Z,13.73
2022-12-14T14:05:20.633Z,16.50
2022-12-14T14:08:03.981Z,15.33
2022-12-14T14:10:41.746Z,19.50
2022-12-14T14:13:31.176Z,13.93
2022-12-14T14:16:27.475Z,14.70
2022-12-14T14:19:02.883Z,15.33
2022-12-14T14:21:58.916Z,16.63
2022-12-14T14:24:27.679Z,19.07
2022-12-14T14:27:08.676Z,13.87
2022-12-14T14:29:45.007Z,14.20
2022-12-14T14:32:41.560Z,17.30
2022-12-14T14:35:38.355Z,20.80
2022-12-14T14:38:09.836Z,21.27
2022-12-14T14:41:15.233Z,18.20
2022-12-14T14:43:39.789Z,19.03
2022-12-14T14:46:09.754Z,12.53
2022-12-14T14:48:49.702Z,15.93
2022-12-14T14:51:25.181Z,10.03
2022-12-14T14:55:03.576Z,15.60
2022-12-14T14:57:36.108Z,14.27
2022-12-14T15:00:05.996Z,14.07
2022-12-14T15:02:40.099Z,11.67
2022-12-14T15:08:04.137Z,16.40
2022-12-14T15:10:38.743Z,13.60
2022-12-14T15:13:18.696Z,16.07
2022-12-14T15:15:49.787Z,17.00
2022-12-14T15:18:19.298Z,20.60
2022-12-14T15:21:01.137Z,15.77
2022-12-14T15:23:36.477Z,21.67
2022-12-14T15:26:16.212Z,13.50
2022-12-14T15:28:45.942Z,15.60
2022-12-14T15:31:13.802Z,13.77
2022-12-14T15:33:42.996Z,15.37
2022-12-14T15:36:17.024Z,13.17
2022-12-14T15:38:55.505Z,13.63
2022-12-14T15:41:25.289Z,27.53
2022-12-14T15:43:56.442Z,17.30
2022-12-14T15:46:33.561Z,19.03
2022-12-14T15:49:22.163Z,13.93
2022-12-14T15:51:50.298Z,11.03
2022-12-14T15:54:24.204Z,14.80
2022-12-14T15:56:54.598Z,11.40
2022-12-14T15:59:24.103Z,12.93
2022-12-14T16:02:18.435Z,19.53
2022-12-14T16:04:46.125Z,14.53
2022-12-14T16:07:42.483Z,20.77
2022-12-14T16:10:33.609Z,23.50
2022-12-14T16:13:07.008Z,19.77
2022-12-14T16:15:33.978Z,22.53
2022-12-14T16:18:02.994Z,18.20
2022-12-14T16:20:43.701Z,21.80
2022-12-14T16:23:14.270Z,16.97
2022-12-14T16:25:56.095Z,17.63
2022-12-14T16:28:37.310Z,32.07
2022-12-14T16:31:18.157Z,23.23
2022-12-14T16:33:45.525Z,26.57
2022-12-14T16:36:25.597Z,20.23
2022-12-14T16:39:03.713Z,23.70
2022-12-14T16:41:41.164Z,30.37
2022-12-14T16:44:19.819Z,32.07
2022-12-14T16:47:04.636Z,27.13
2022-12-14T16:49:42.996Z,26.60
2022-12-14T16:52:09.650Z,29.70
2022-12-14T16:54:38.093Z,26.77
2022-12-14T16:57:27.207Z,31.37
2022-12-14T17:00:00.409Z,24.70
2022-12-14T17:02:35.864Z,24.63
2022-12-14T17:05:06.026Z,32.13
2022-12-14T17:07:36.388Z,27.57
2022-12-14T17:10:03.447Z,29.13
2022-12-14T17:12:30.285Z,35.37
2022-12-14T17:14:57.495Z,24.90
2022-12-14T17:17:32.261Z,22.20
2022-12-14T17:19:59.508Z,44.87
2022-12-14T17:22:29.746Z,78.10
2022-12-14T17:24:56.514Z,42.50
2022-12-14T17:27:26.497Z,34.80
2022-12-14T17:29:54.863Z,33.03
2022-12-14T17:32:22.445Z,31.73
2022-12-14T17:34:49.253Z,31.63
2022-12-14T17:37:17.321Z,33.03
2022-12-14T17:39:44.015Z,30.83
2022-12-14T17:42:16.664Z,32.27
2022-12-14T17:44:48.639Z,28.80
2022-12-14T17:47:16.513Z,34.03
2022-12-14T17:49:43.269Z,31.97
2022-12-14T17:52:23.687Z,30.20
2022-12-14T17:54:50.625Z,31.27
2022-12-14T17:57:20.771Z,33.67
2022-12-14T17:59:48.351Z,27.23
2022-12-14T18:02:33.392Z,29.57
2022-12-14T18:05:00.367Z,34.03
2022-12-14T18:07:27.164Z,35.40
2022-12-14T18:09:54.533Z,34.97
2022-12-14T18:12:23.505Z,28.17
2022-12-14T18:14:51.122Z,32.67
2022-12-14T18:17:19.212Z,33.13
2022-12-14T18:19:47.887Z,34.23
2022-12-14T18:22:16.749Z,29.73
2022-12-14T18:24:43.470Z,32.70
2022-12-14T18:27:13.415Z,26.73
2022-12-14T18:29:40.255Z,32.77
2022-12-14T18:32:06.941Z,37.03
2022-12-14T18:34:33.604Z,27.50
2022-12-14T18:37:00.312Z,30.07
2022-12-14T18:39:27.028Z,30.93
2022-12-14T18:41:53.649Z,29.93
2022-12-14T18:44:23.815Z,31.93
2022-12-14T18:46:50.700Z,35.20
2022-12-14T18:49:17.854Z,26.63
2022-12-14T18:51:44.715Z,30.43
2022-12-14T18:54:11.614Z,23.83
2022-12-14T18:56:41.308Z,26.07
2022-12-14T18:59:08.015Z,28.77
2022-12-14T19:01:34.755Z,29.47
2022-12-14T19:04:01.592Z,31.00
2022-12-14T19:06:45.331Z,31.93
2022-12-14T19:09:14.159Z,32.13
2022-12-14T19:11:44.220Z,30.80
2022-12-14T19:14:11.253Z,27.53
2022-12-14T19:16:38.302Z,29.33
2022-12-14T19:19:05.097Z,29.50
2022-12-14T19:21:31.910Z,28.87
2022-12-14T19:23:59.889Z,29.07
2022-12-14T19:26:28.431Z,30.77
2022-12-14T19:28:55.323Z,31.37
2022-12-14T19:31:22.636Z,26.33
2022-12-14T19:33:49.387Z,24.73
2022-12-14T19:36:16.091Z,38.63
2022-12-14T19:38:42.774Z,30.07
2022-12-14T19:41:13.568Z,30.67
2022-12-14T19:43:40.280Z,35.80
2022-12-14T19:46:08.309Z,35.80
2022-12-14T19:48:35.285Z,39.50
2022-12-14T19:51:10.928Z,35.80
2022-12-14T19:53:38.890Z,37.23
2022-12-14T19:56:06.509Z,44.13
2022-12-14T19:58:33.350Z,39.33
2022-12-14T20:01:00.086Z,48.33
2022-12-14T20:03:27.255Z,46.47
2022-12-14T20:05:59.386Z,46.13
2022-12-14T20:08:28.797Z,49.80
2022-12-14T20:10:55.607Z,35.43
2022-12-14T20:13:23.672Z,29.80
2022-12-14T20:15:55.326Z,32.93
2022-12-14T20:18:22.669Z,29.60
2022-12-14T20:20:53.497Z,25.37
2022-12-14T20:23:22.109Z,32.33
2022-12-14T20:25:49.215Z,37.90
2022-12-14T20:28:16.101Z,30.20
2022-12-14T20:30:44.552Z,27.70
2022-12-14T20:33:11.801Z,28.97
2022-12-14T20:35:38.598Z,28.40
2022-12-14T20:38:05.473Z,32.77
2022-12-14T20:40:38.102Z,33.27
2022-12-14T20:43:05.398Z,30.03
2022-12-14T20:45:32.048Z,27.10
2022-12-14T20:47:58.782Z,28.83
2022-12-14T20:50:25.403Z,30.23
2022-12-14T20:52:52.125Z,40.30
2022-12-14T20:55:18.758Z,33.00
2022-12-14T20:57:47.541Z,33.80
2022-12-14T21:00:14.833Z,32.67
2022-12-14T21:02:42.766Z,30.43
2022-12-14T21:05:11.381Z,37.93
2022-12-14T21:07:38.650Z,27.83
2022-12-14T21:10:06.886Z,34.97
2022-12-14T21:12:34.053Z,27.80
2022-12-14T21:15:00.884Z,36.57
2022-12-14T21:17:29.946Z,27.87
2022-12-14T21:19:57.704Z,26.47
2022-12-14T21:22:26.841Z,28.43
2022-12-14T21:25:02.941Z,25.00
2022-12-14T21:27:31.299Z,34.33
2022-12-14T21:29:58.165Z,27.73
2022-12-14T21:32:25.000Z,29.83
2022-12-14T21:34:52.249Z,30.23
2022-12-14T21:37:19.294Z,28.27
2022-12-14T21:39:53.869Z,25.10
2022-12-14T21:42:22.028Z,23.60
2022-12-14T21:44:50.462Z,29.27
2022-12-14T21:47:20.591Z,25.73
2022-12-14T21:49:47.379Z,26.07
2022-12-14T21:52:18.326Z,27.43
2022-12-14T21:54:45.319Z,30.23
2022-12-14T21:57:38.227Z,28.87
2022-12-14T22:00:07.156Z,27.13
2022-12-14T22:02:34.133Z,24.07
2022-12-14T22:05:00.981Z,27.90
2022-12-14T22:07:32.607Z,23.97
2022-12-14T22:09:59.400Z,20.37
2022-12-14T22:12:26.293Z,24.80
2022-12-14T22:14:53.160Z,26.17
2022-12-14T22:17:19.847Z,22.97
2022-12-14T22:19:46.660Z,26.43
2022-12-14T22:22:17.093Z,32.40
2022-12-14T22:24:45.068Z,26.83
2022-12-14T22:27:12.666Z,30.10
2022-12-14T22:29:39.619Z,27.93
2022-12-14T22:32:07.301Z,24.37
2022-12-14T22:34:34.161Z,22.40
2022-12-14T22:37:00.932Z,22.57
2022-12-14T22:39:27.630Z,23.37
2022-12-14T22:41:54.333Z,30.80
2022-12-14T22:44:21.063Z,22.67
2022-12-14T22:46:49.695Z,29.53
2022-12-14T22:49:18.459Z,24.17
2022-12-14T22:51:45.514Z,27.67
2022-12-14T22:54:20.858Z,28.23
2022-12-14T22:56:56.825Z,25.50
2022-12-14T22:59:30.335Z,23.67
2022-12-14T23:01:59.056Z,25.03
2022-12-14T23:04:25.997Z,28.07
2022-12-14T23:06:52.991Z,21.53
2022-12-14T23:09:38.225Z,22.17
2022-12-14T23:12:23.713Z,26.97
2022-12-14T23:15:08.958Z,21.87
2022-12-14T23:17:54.567Z,22.37
2022-12-14T23:20:39.807Z,21.97
2022-12-14T23:23:26.791Z,17.60
2022-12-14T23:26:12.588Z,21.60
2022-12-14T23:28:58.278Z,25.80
2022-12-14T23:31:43.380Z,21.30
2022-12-14T23:34:28.621Z,20.60
2022-12-14T23:37:19.747Z,19.53
2022-12-14T23:40:05.983Z,21.67
2022-12-14T23:42:51.240Z,24.47
2022-12-14T23:45:36.422Z,21.57
2022-12-14T23:48:21.509Z,22.87
2022-12-14T23:51:06.571Z,25.30
2022-12-14T23:53:51.779Z,23.77
2022-12-14T23:56:36.996Z,24.93
2022-12-14T23:59:26.300Z,24.70
